Benwell, United Kingdom
Current Conditions -  °F | °C
As of 5:50 PM on Tuesday 21 Oct 2014 (Local Time) from EGNT Reporting Station
Few Clouds Few Clouds  
Wind Chill: 39°   Ceiling: Unl
Heat Index: 46°   Visibility: 6mi
Dew Point: 34°   Wind: 20mph
Humidity: 62%   Direction: 300°WNW
Pressure: 29.71"   Gusts: NA
Location:  54.97°N, 1.67°W
Report Text: EGNT 211650Z 30017KT 9999 FEW035 08/01 Q1006
Loading
Personal Weather Stations






























Interactive Weather Map
Tropical Storm Tracking
New forecast layout! Learn more

10-Day Weather Forecast

Advertisements
Track Severe Weather on mobile